sensor_id;sensor_type;location;lat;lon;timestamp;P1;durP1;ratioP1;P2;durP2;ratioP2
60372;SDS011;46216;52.220;5.134;2023-06-22T00:01:08;4.85;;;4.25;;
60372;SDS011;46216;52.220;5.134;2023-06-22T00:03:34;4.93;;;4.28;;
60372;SDS011;46216;52.220;5.134;2023-06-22T00:05:59;4.70;;;4.25;;
60372;SDS011;46216;52.220;5.134;2023-06-22T00:08:24;8.07;;;4.65;;
60372;SDS011;46216;52.220;5.134;2023-06-22T00:10:50;4.63;;;4.22;;
60372;SDS011;46216;52.220;5.134;2023-06-22T00:13:16;5.68;;;4.00;;
60372;SDS011;46216;52.220;5.134;2023-06-22T00:15:42;4.95;;;4.43;;
60372;SDS011;46216;52.220;5.134;2023-06-22T00:18:08;4.88;;;4.30;;
60372;SDS011;46216;52.220;5.134;2023-06-22T00:20:35;5.30;;;4.30;;
60372;SDS011;46216;52.220;5.134;2023-06-22T00:23:05;5.10;;;4.32;;
60372;SDS011;46216;52.220;5.134;2023-06-22T00:25:37;4.60;;;4.10;;
60372;SDS011;46216;52.220;5.134;2023-06-22T00:28:05;4.75;;;4.22;;
60372;SDS011;46216;52.220;5.134;2023-06-22T00:30:31;5.53;;;4.20;;
60372;SDS011;46216;52.220;5.134;2023-06-22T00:32:57;4.78;;;4.30;;
60372;SDS011;46216;52.220;5.134;2023-06-22T00:35:23;4.97;;;4.15;;
60372;SDS011;46216;52.220;5.134;2023-06-22T00:37:53;5.65;;;4.68;;
60372;SDS011;46216;52.220;5.134;2023-06-22T00:40:25;6.93;;;4.40;;
60372;SDS011;46216;52.220;5.134;2023-06-22T00:42:51;4.80;;;4.22;;
60372;SDS011;46216;52.220;5.134;2023-06-22T00:45:16;4.80;;;4.40;;
60372;SDS011;46216;52.220;5.134;2023-06-22T00:47:42;4.50;;;4.10;;
60372;SDS011;46216;52.220;5.134;2023-06-22T00:50:08;5.03;;;4.10;;
60372;SDS011;46216;52.220;5.134;2023-06-22T00:52:38;5.07;;;4.60;;
60372;SDS011;46216;52.220;5.134;2023-06-22T00:55:08;6.15;;;5.38;;
60372;SDS011;46216;52.220;5.134;2023-06-22T00:57:34;6.82;;;5.30;;
60372;SDS011;46216;52.220;5.134;2023-06-22T01:00:02;6.22;;;4.97;;
60372;SDS011;46216;52.220;5.134;2023-06-22T01:02:31;6.70;;;5.18;;
60372;SDS011;46216;52.220;5.134;2023-06-22T01:04:57;6.38;;;5.63;;
60372;SDS011;46216;52.220;5.134;2023-06-22T01:07:29;5.80;;;5.15;;
60372;SDS011;46216;52.220;5.134;2023-06-22T01:10:07;5.85;;;5.07;;
60372;SDS011;46216;52.220;5.134;2023-06-22T01:12:38;8.25;;;5.70;;
60372;SDS011;46216;52.220;5.134;2023-06-22T01:15:10;6.53;;;5.85;;
60372;SDS011;46216;52.220;5.134;2023-06-22T01:17:46;6.53;;;5.80;;
60372;SDS011;46216;52.220;5.134;2023-06-22T01:20:14;7.30;;;5.70;;
60372;SDS011;46216;52.220;5.134;2023-06-22T01:23:05;7.55;;;6.28;;
60372;SDS011;46216;52.220;5.134;2023-06-22T01:30:57;6.85;;;5.75;;
60372;SDS011;46216;52.220;5.134;2023-06-22T01:33:34;7.10;;;5.60;;
60372;SDS011;46216;52.220;5.134;2023-06-22T01:36:04;7.72;;;6.25;;
60372;SDS011;46216;52.220;5.134;2023-06-22T01:38:31;7.57;;;6.50;;
60372;SDS011;46216;52.220;5.134;2023-06-22T01:40:58;8.32;;;6.15;;
60372;SDS011;46216;52.220;5.134;2023-06-22T01:43:27;9.23;;;7.20;;
60372;SDS011;46216;52.220;5.134;2023-06-22T01:45:54;8.23;;;7.38;;
60372;SDS011;46216;52.220;5.134;2023-06-22T01:48:21;9.73;;;7.43;;
60372;SDS011;46216;52.220;5.134;2023-06-22T01:50:47;12.27;;;7.68;;
60372;SDS011;46216;52.220;5.134;2023-06-22T01:53:13;11.07;;;8.32;;
60372;SDS011;46216;52.220;5.134;2023-06-22T01:55:38;9.93;;;7.90;;
60372;SDS011;46216;52.220;5.134;2023-06-22T01:58:04;11.82;;;9.43;;
60372;SDS011;46216;52.220;5.134;2023-06-22T02:00:31;11.20;;;9.23;;
60372;SDS011;46216;52.220;5.134;2023-06-22T02:05:34;12.32;;;9.32;;
60372;SDS011;46216;52.220;5.134;2023-06-22T02:08:11;12.10;;;9.00;;
60372;SDS011;46216;52.220;5.134;2023-06-22T02:10:43;11.75;;;9.75;;
60372;SDS011;46216;52.220;5.134;2023-06-22T02:13:10;12.40;;;10.43;;
60372;SDS011;46216;52.220;5.134;2023-06-22T02:15:36;16.00;;;11.48;;
60372;SDS011;46216;52.220;5.134;2023-06-22T02:18:02;14.32;;;12.07;;
60372;SDS011;46216;52.220;5.134;2023-06-22T02:20:28;15.00;;;11.05;;
60372;SDS011;46216;52.220;5.134;2023-06-22T02:22:53;15.02;;;12.10;;
60372;SDS011;46216;52.220;5.134;2023-06-22T02:25:18;15.40;;;13.45;;
60372;SDS011;46216;52.220;5.134;2023-06-22T02:27:44;15.70;;;11.95;;
60372;SDS011;46216;52.220;5.134;2023-06-22T02:30:10;14.77;;;11.98;;
60372;SDS011;46216;52.220;5.134;2023-06-22T02:32:36;13.30;;;11.55;;
60372;SDS011;46216;52.220;5.134;2023-06-22T02:35:01;12.60;;;10.23;;
60372;SDS011;46216;52.220;5.134;2023-06-22T02:37:30;14.77;;;12.07;;
60372;SDS011;46216;52.220;5.134;2023-06-22T02:39:56;16.85;;;13.15;;
60372;SDS011;46216;52.220;5.134;2023-06-22T02:42:22;18.55;;;13.00;;
60372;SDS011;46216;52.220;5.134;2023-06-22T02:44:47;16.58;;;13.38;;
60372;SDS011;46216;52.220;5.134;2023-06-22T02:47:13;18.42;;;14.35;;
60372;SDS011;46216;52.220;5.134;2023-06-22T02:49:38;16.80;;;13.85;;
60372;SDS011;46216;52.220;5.134;2023-06-22T02:52:04;16.88;;;13.32;;
60372;SDS011;46216;52.220;5.134;2023-06-22T02:54:29;16.58;;;13.40;;
60372;SDS011;46216;52.220;5.134;2023-06-22T02:56:55;16.88;;;13.27;;
60372;SDS011;46216;52.220;5.134;2023-06-22T02:59:20;16.83;;;13.88;;
60372;SDS011;46216;52.220;5.134;2023-06-22T03:01:49;19.90;;;14.45;;
60372;SDS011;46216;52.220;5.134;2023-06-22T03:04:15;18.60;;;14.48;;
60372;SDS011;46216;52.220;5.134;2023-06-22T03:06:41;19.42;;;15.57;;
60372;SDS011;46216;52.220;5.134;2023-06-22T03:09:06;20.13;;;15.10;;
60372;SDS011;46216;52.220;5.134;2023-06-22T03:11:32;18.75;;;14.90;;
60372;SDS011;46216;52.220;5.134;2023-06-22T03:13:59;19.50;;;14.95;;
60372;SDS011;46216;52.220;5.134;2023-06-22T03:16:25;24.08;;;16.40;;
60372;SDS011;46216;52.220;5.134;2023-06-22T03:18:51;21.00;;;15.35;;
60372;SDS011;46216;52.220;5.134;2023-06-22T03:21:18;18.85;;;15.90;;
60372;SDS011;46216;52.220;5.134;2023-06-22T03:23:44;18.98;;;15.52;;
60372;SDS011;46216;52.220;5.134;2023-06-22T03:26:09;20.40;;;15.52;;
60372;SDS011;46216;52.220;5.134;2023-06-22T03:28:35;20.77;;;16.00;;
60372;SDS011;46216;52.220;5.134;2023-06-22T03:31:01;22.15;;;15.40;;
60372;SDS011;46216;52.220;5.134;2023-06-22T03:33:26;23.33;;;16.20;;
60372;SDS011;46216;52.220;5.134;2023-06-22T03:35:51;20.42;;;15.48;;
60372;SDS011;46216;52.220;5.134;2023-06-22T03:38:17;16.85;;;14.55;;
60372;SDS011;46216;52.220;5.134;2023-06-22T03:40:42;18.83;;;14.95;;
60372;SDS011;46216;52.220;5.134;2023-06-22T03:43:08;17.95;;;15.07;;
60372;SDS011;46216;52.220;5.134;2023-06-22T03:45:33;16.48;;;13.57;;
60372;SDS011;46216;52.220;5.134;2023-06-22T03:48:00;18.80;;;13.43;;
60372;SDS011;46216;52.220;5.134;2023-06-22T03:50:25;16.02;;;13.27;;
60372;SDS011;46216;52.220;5.134;2023-06-22T03:52:51;16.98;;;13.43;;
60372;SDS011;46216;52.220;5.134;2023-06-22T03:55:17;16.63;;;14.05;;
60372;SDS011;46216;52.220;5.134;2023-06-22T03:57:45;18.45;;;14.57;;
60372;SDS011;46216;52.220;5.134;2023-06-22T04:00:11;19.27;;;15.23;;
60372;SDS011;46216;52.220;5.134;2023-06-22T04:02:37;22.52;;;16.95;;
60372;SDS011;46216;52.220;5.134;2023-06-22T04:05:02;20.73;;;16.48;;
60372;SDS011;46216;52.220;5.134;2023-06-22T04:07:28;18.98;;;15.10;;
60372;SDS011;46216;52.220;5.134;2023-06-22T04:09:53;22.48;;;17.38;;
60372;SDS011;46216;52.220;5.134;2023-06-22T04:12:19;23.23;;;17.80;;
60372;SDS011;46216;52.220;5.134;2023-06-22T04:14:44;22.55;;;17.20;;
60372;SDS011;46216;52.220;5.134;2023-06-22T04:17:09;20.52;;;17.38;;
60372;SDS011;46216;52.220;5.134;2023-06-22T04:19:35;20.35;;;16.15;;
60372;SDS011;46216;52.220;5.134;2023-06-22T04:22:00;24.80;;;17.73;;
60372;SDS011;46216;52.220;5.134;2023-06-22T04:24:25;22.02;;;17.65;;
60372;SDS011;46216;52.220;5.134;2023-06-22T04:26:51;25.35;;;18.50;;
60372;SDS011;46216;52.220;5.134;2023-06-22T04:29:19;26.05;;;19.63;;
60372;SDS011;46216;52.220;5.134;2023-06-22T04:31:46;22.65;;;17.38;;
60372;SDS011;46216;52.220;5.134;2023-06-22T04:34:15;25.58;;;19.70;;
60372;SDS011;46216;52.220;5.134;2023-06-22T04:36:42;27.00;;;19.90;;
60372;SDS011;46216;52.220;5.134;2023-06-22T04:39:08;23.30;;;18.33;;
60372;SDS011;46216;52.220;5.134;2023-06-22T04:41:39;26.75;;;17.75;;
60372;SDS011;46216;52.220;5.134;2023-06-22T04:44:11;25.58;;;19.48;;
60372;SDS011;46216;52.220;5.134;2023-06-22T04:46:37;23.73;;;18.95;;
60372;SDS011;46216;52.220;5.134;2023-06-22T04:49:12;27.80;;;20.23;;
60372;SDS011;46216;52.220;5.134;2023-06-22T04:51:41;25.67;;;20.48;;
60372;SDS011;46216;52.220;5.134;2023-06-22T04:54:07;26.00;;;20.45;;
60372;SDS011;46216;52.220;5.134;2023-06-22T04:56:34;26.17;;;20.00;;
60372;SDS011;46216;52.220;5.134;2023-06-22T04:59:00;24.50;;;19.58;;
60372;SDS011;46216;52.220;5.134;2023-06-22T05:01:25;24.80;;;20.38;;
60372;SDS011;46216;52.220;5.134;2023-06-22T05:03:51;29.60;;;21.65;;
60372;SDS011;46216;52.220;5.134;2023-06-22T05:06:23;24.75;;;19.38;;
60372;SDS011;46216;52.220;5.134;2023-06-22T05:08:56;27.10;;;21.42;;
60372;SDS011;46216;52.220;5.134;2023-06-22T05:11:23;27.00;;;20.27;;
60372;SDS011;46216;52.220;5.134;2023-06-22T05:13:52;27.48;;;21.13;;
60372;SDS011;46216;52.220;5.134;2023-06-22T05:16:18;28.20;;;21.88;;
60372;SDS011;46216;52.220;5.134;2023-06-22T05:18:49;28.27;;;22.27;;
60372;SDS011;46216;52.220;5.134;2023-06-22T05:21:15;28.17;;;21.98;;
60372;SDS011;46216;52.220;5.134;2023-06-22T05:23:40;29.75;;;23.27;;
60372;SDS011;46216;52.220;5.134;2023-06-22T05:26:06;30.10;;;23.13;;
60372;SDS011;46216;52.220;5.134;2023-06-22T05:28:34;29.75;;;24.13;;
60372;SDS011;46216;52.220;5.134;2023-06-22T05:30:59;26.05;;;21.33;;
60372;SDS011;46216;52.220;5.134;2023-06-22T05:33:25;27.73;;;22.65;;
60372;SDS011;46216;52.220;5.134;2023-06-22T05:35:50;30.85;;;23.75;;
60372;SDS011;46216;52.220;5.134;2023-06-22T05:38:16;25.70;;;22.08;;
60372;SDS011;46216;52.220;5.134;2023-06-22T05:40:41;31.25;;;24.98;;
60372;SDS011;46216;52.220;5.134;2023-06-22T05:43:06;30.02;;;24.80;;
60372;SDS011;46216;52.220;5.134;2023-06-22T05:45:32;27.75;;;24.27;;
60372;SDS011;46216;52.220;5.134;2023-06-22T05:47:57;28.70;;;24.63;;
60372;SDS011;46216;52.220;5.134;2023-06-22T05:50:22;31.70;;;24.30;;
60372;SDS011;46216;52.220;5.134;2023-06-22T05:52:48;32.15;;;25.33;;
60372;SDS011;46216;52.220;5.134;2023-06-22T05:55:13;33.88;;;25.77;;
60372;SDS011;46216;52.220;5.134;2023-06-22T05:57:40;32.63;;;27.75;;
60372;SDS011;46216;52.220;5.134;2023-06-22T06:00:07;32.42;;;27.95;;
60372;SDS011;46216;52.220;5.134;2023-06-22T06:02:35;33.30;;;27.08;;
60372;SDS011;46216;52.220;5.134;2023-06-22T06:05:01;32.72;;;28.65;;
60372;SDS011;46216;52.220;5.134;2023-06-22T06:07:28;35.35;;;28.75;;
60372;SDS011;46216;52.220;5.134;2023-06-22T06:09:54;34.38;;;28.80;;
60372;SDS011;46216;52.220;5.134;2023-06-22T06:12:19;34.70;;;28.60;;
60372;SDS011;46216;52.220;5.134;2023-06-22T06:14:44;34.47;;;29.10;;
60372;SDS011;46216;52.220;5.134;2023-06-22T06:17:10;35.25;;;29.75;;
60372;SDS011;46216;52.220;5.134;2023-06-22T06:19:35;37.05;;;29.88;;
60372;SDS011;46216;52.220;5.134;2023-06-22T06:22:01;35.92;;;28.55;;
60372;SDS011;46216;52.220;5.134;2023-06-22T06:24:26;32.50;;;28.33;;
60372;SDS011;46216;52.220;5.134;2023-06-22T06:26:51;33.30;;;28.88;;
60372;SDS011;46216;52.220;5.134;2023-06-22T06:29:17;34.00;;;28.42;;
60372;SDS011;46216;52.220;5.134;2023-06-22T06:31:42;32.03;;;28.10;;
60372;SDS011;46216;52.220;5.134;2023-06-22T06:34:08;31.30;;;27.80;;
60372;SDS011;46216;52.220;5.134;2023-06-22T06:36:33;30.10;;;24.98;;
60372;SDS011;46216;52.220;5.134;2023-06-22T06:38:58;26.35;;;23.42;;
60372;SDS011;46216;52.220;5.134;2023-06-22T06:41:24;28.33;;;24.48;;
60372;SDS011;46216;52.220;5.134;2023-06-22T06:43:49;28.60;;;24.30;;
60372;SDS011;46216;52.220;5.134;2023-06-22T06:46:14;26.42;;;23.63;;
60372;SDS011;46216;52.220;5.134;2023-06-22T06:48:40;28.08;;;23.27;;
60372;SDS011;46216;52.220;5.134;2023-06-22T06:51:05;26.13;;;23.02;;
60372;SDS011;46216;52.220;5.134;2023-06-22T06:53:34;28.70;;;23.40;;
60372;SDS011;46216;52.220;5.134;2023-06-22T06:56:00;26.67;;;22.98;;
60372;SDS011;46216;52.220;5.134;2023-06-22T06:58:26;25.02;;;22.02;;
60372;SDS011;46216;52.220;5.134;2023-06-22T07:00:51;26.05;;;22.02;;
60372;SDS011;46216;52.220;5.134;2023-06-22T07:03:16;25.83;;;22.08;;
60372;SDS011;46216;52.220;5.134;2023-06-22T07:05:42;26.70;;;22.65;;
60372;SDS011;46216;52.220;5.134;2023-06-22T07:08:07;24.98;;;22.08;;
60372;SDS011;46216;52.220;5.134;2023-06-22T07:10:32;24.90;;;21.60;;
60372;SDS011;46216;52.220;5.134;2023-06-22T07:12:58;23.05;;;19.85;;
60372;SDS011;46216;52.220;5.134;2023-06-22T07:15:23;23.08;;;20.02;;
60372;SDS011;46216;52.220;5.134;2023-06-22T07:17:49;22.23;;;19.85;;
60372;SDS011;46216;52.220;5.134;2023-06-22T07:20:14;23.13;;;19.42;;
60372;SDS011;46216;52.220;5.134;2023-06-22T07:22:40;21.35;;;19.13;;
60372;SDS011;46216;52.220;5.134;2023-06-22T07:25:07;21.35;;;18.55;;
60372;SDS011;46216;52.220;5.134;2023-06-22T07:27:39;21.20;;;18.92;;
60372;SDS011;46216;52.220;5.134;2023-06-22T07:30:09;22.20;;;18.45;;
60372;SDS011;46216;52.220;5.134;2023-06-22T07:32:35;24.17;;;18.83;;
60372;SDS011;46216;52.220;5.134;2023-06-22T07:35:01;20.48;;;17.33;;
60372;SDS011;46216;52.220;5.134;2023-06-22T07:37:27;19.77;;;17.67;;
60372;SDS011;46216;52.220;5.134;2023-06-22T07:39:53;19.95;;;17.85;;
60372;SDS011;46216;52.220;5.134;2023-06-22T07:42:23;19.77;;;17.60;;
60372;SDS011;46216;52.220;5.134;2023-06-22T07:44:49;21.25;;;19.00;;
60372;SDS011;46216;52.220;5.134;2023-06-22T07:47:16;24.13;;;19.80;;
60372;SDS011;46216;52.220;5.134;2023-06-22T07:49:43;21.00;;;18.80;;
60372;SDS011;46216;52.220;5.134;2023-06-22T07:52:08;21.63;;;18.52;;
60372;SDS011;46216;52.220;5.134;2023-06-22T07:54:34;23.23;;;19.15;;
60372;SDS011;46216;52.220;5.134;2023-06-22T07:56:59;27.38;;;20.45;;
60372;SDS011;46216;52.220;5.134;2023-06-22T07:59:25;21.33;;;19.05;;
60372;SDS011;46216;52.220;5.134;2023-06-22T08:01:50;24.67;;;19.80;;
60372;SDS011;46216;52.220;5.134;2023-06-22T08:04:16;22.50;;;19.33;;
60372;SDS011;46216;52.220;5.134;2023-06-22T08:06:41;19.77;;;17.67;;
60372;SDS011;46216;52.220;5.134;2023-06-22T08:09:07;19.45;;;16.95;;
60372;SDS011;46216;52.220;5.134;2023-06-22T08:11:32;22.35;;;20.00;;
60372;SDS011;46216;52.220;5.134;2023-06-22T08:13:58;20.00;;;17.90;;
60372;SDS011;46216;52.220;5.134;2023-06-22T08:16:24;19.33;;;17.25;;
60372;SDS011;46216;52.220;5.134;2023-06-22T08:18:50;19.92;;;18.02;;
60372;SDS011;46216;52.220;5.134;2023-06-22T08:21:15;19.30;;;17.27;;
60372;SDS011;46216;52.220;5.134;2023-06-22T08:23:40;19.08;;;17.17;;
60372;SDS011;46216;52.220;5.134;2023-06-22T08:26:06;23.83;;;18.13;;
60372;SDS011;46216;52.220;5.134;2023-06-22T08:28:31;20.13;;;17.90;;
60372;SDS011;46216;52.220;5.134;2023-06-22T08:30:57;18.38;;;16.33;;
60372;SDS011;46216;52.220;5.134;2023-06-22T08:33:23;18.52;;;15.88;;
60372;SDS011;46216;52.220;5.134;2023-06-22T08:35:53;17.13;;;15.30;;
60372;SDS011;46216;52.220;5.134;2023-06-22T08:38:21;16.80;;;15.10;;
60372;SDS011;46216;52.220;5.134;2023-06-22T08:40:46;16.52;;;14.80;;
60372;SDS011;46216;52.220;5.134;2023-06-22T08:43:12;16.33;;;14.63;;
60372;SDS011;46216;52.220;5.134;2023-06-22T08:45:37;16.27;;;14.20;;
60372;SDS011;46216;52.220;5.134;2023-06-22T08:48:02;14.10;;;12.70;;
60372;SDS011;46216;52.220;5.134;2023-06-22T08:50:28;16.20;;;12.90;;
60372;SDS011;46216;52.220;5.134;2023-06-22T08:52:53;13.88;;;12.27;;
60372;SDS011;46216;52.220;5.134;2023-06-22T08:55:19;15.02;;;13.52;;
60372;SDS011;46216;52.220;5.134;2023-06-22T08:57:44;14.25;;;12.93;;
60372;SDS011;46216;52.220;5.134;2023-06-22T09:00:09;14.05;;;12.23;;
60372;SDS011;46216;52.220;5.134;2023-06-22T09:02:43;13.63;;;12.23;;
60372;SDS011;46216;52.220;5.134;2023-06-22T09:05:12;12.52;;;10.48;;
60372;SDS011;46216;52.220;5.134;2023-06-22T09:07:38;12.60;;;11.25;;
60372;SDS011;46216;52.220;5.134;2023-06-22T09:10:04;10.10;;;9.10;;
60372;SDS011;46216;52.220;5.134;2023-06-22T09:12:30;12.23;;;10.98;;
60372;SDS011;46216;52.220;5.134;2023-06-22T09:14:57;11.80;;;10.60;;
60372;SDS011;46216;52.220;5.134;2023-06-22T09:17:25;11.43;;;9.65;;
60372;SDS011;46216;52.220;5.134;2023-06-22T09:19:51;11.25;;;9.85;;
60372;SDS011;46216;52.220;5.134;2023-06-22T09:22:16;11.65;;;9.60;;
60372;SDS011;46216;52.220;5.134;2023-06-22T09:24:41;10.73;;;9.10;;
60372;SDS011;46216;52.220;5.134;2023-06-22T09:27:07;9.38;;;7.80;;
60372;SDS011;46216;52.220;5.134;2023-06-22T09:29:32;7.32;;;6.00;;
60372;SDS011;46216;52.220;5.134;2023-06-22T09:31:58;7.90;;;6.40;;
60372;SDS011;46216;52.220;5.134;2023-06-22T09:34:24;9.07;;;7.60;;
60372;SDS011;46216;52.220;5.134;2023-06-22T09:36:50;9.27;;;7.53;;
60372;SDS011;46216;52.220;5.134;2023-06-22T09:39:16;9.68;;;8.52;;
60372;SDS011;46216;52.220;5.134;2023-06-22T09:41:43;9.70;;;7.80;;
60372;SDS011;46216;52.220;5.134;2023-06-22T09:44:08;10.30;;;8.63;;
60372;SDS011;46216;52.220;5.134;2023-06-22T09:46:33;11.05;;;9.30;;
60372;SDS011;46216;52.220;5.134;2023-06-22T09:48:59;11.73;;;8.80;;
60372;SDS011;46216;52.220;5.134;2023-06-22T09:51:24;9.48;;;8.50;;
60372;SDS011;46216;52.220;5.134;2023-06-22T09:53:50;10.15;;;8.48;;
60372;SDS011;46216;52.220;5.134;2023-06-22T09:56:16;8.63;;;7.82;;
60372;SDS011;46216;52.220;5.134;2023-06-22T09:58:41;9.30;;;8.40;;
60372;SDS011;46216;52.220;5.134;2023-06-22T10:01:08;10.60;;;8.70;;
60372;SDS011;46216;52.220;5.134;2023-06-22T10:03:33;9.27;;;8.05;;
60372;SDS011;46216;52.220;5.134;2023-06-22T10:05:59;10.52;;;7.30;;
60372;SDS011;46216;52.220;5.134;2023-06-22T10:08:24;10.82;;;9.13;;
60372;SDS011;46216;52.220;5.134;2023-06-22T10:10:49;8.98;;;7.95;;
60372;SDS011;46216;52.220;5.134;2023-06-22T10:13:15;8.88;;;7.70;;
60372;SDS011;46216;52.220;5.134;2023-06-22T10:15:41;10.57;;;7.72;;
60372;SDS011;46216;52.220;5.134;2023-06-22T10:18:07;9.40;;;8.50;;
60372;SDS011;46216;52.220;5.134;2023-06-22T10:20:33;10.63;;;7.78;;
60372;SDS011;46216;52.220;5.134;2023-06-22T10:22:58;8.32;;;7.45;;
60372;SDS011;46216;52.220;5.134;2023-06-22T10:25:23;9.73;;;7.13;;
60372;SDS011;46216;52.220;5.134;2023-06-22T10:27:49;8.77;;;7.65;;
60372;SDS011;46216;52.220;5.134;2023-06-22T10:30:14;7.57;;;6.75;;
60372;SDS011;46216;52.220;5.134;2023-06-22T10:32:41;8.98;;;7.80;;
60372;SDS011;46216;52.220;5.134;2023-06-22T10:35:10;7.90;;;6.63;;
60372;SDS011;46216;52.220;5.134;2023-06-22T10:37:38;14.43;;;6.75;;
60372;SDS011;46216;52.220;5.134;2023-06-22T10:40:04;7.90;;;7.10;;
60372;SDS011;46216;52.220;5.134;2023-06-22T10:42:30;8.55;;;6.10;;
60372;SDS011;46216;52.220;5.134;2023-06-22T10:44:55;7.00;;;5.80;;
60372;SDS011;46216;52.220;5.134;2023-06-22T10:47:21;8.73;;;7.28;;
60372;SDS011;46216;52.220;5.134;2023-06-22T10:49:46;7.97;;;7.13;;
60372;SDS011;46216;52.220;5.134;2023-06-22T10:52:12;10.65;;;8.40;;
60372;SDS011;46216;52.220;5.134;2023-06-22T10:54:37;7.45;;;6.75;;
60372;SDS011;46216;52.220;5.134;2023-06-22T10:57:03;11.05;;;8.02;;
60372;SDS011;46216;52.220;5.134;2023-06-22T10:59:29;8.57;;;7.32;;
60372;SDS011;46216;52.220;5.134;2023-06-22T11:01:58;8.38;;;7.22;;
60372;SDS011;46216;52.220;5.134;2023-06-22T11:04:24;9.18;;;6.60;;
60372;SDS011;46216;52.220;5.134;2023-06-22T11:06:50;7.15;;;6.07;;
60372;SDS011;46216;52.220;5.134;2023-06-22T11:09:16;7.93;;;6.22;;
60372;SDS011;46216;52.220;5.134;2023-06-22T11:11:45;8.43;;;6.20;;
60372;SDS011;46216;52.220;5.134;2023-06-22T11:14:11;6.38;;;5.35;;
60372;SDS011;46216;52.220;5.134;2023-06-22T11:16:36;7.75;;;5.95;;
60372;SDS011;46216;52.220;5.134;2023-06-22T11:19:02;6.78;;;5.70;;
60372;SDS011;46216;52.220;5.134;2023-06-22T11:21:30;8.40;;;5.53;;
60372;SDS011;46216;52.220;5.134;2023-06-22T11:23:56;8.35;;;5.68;;
60372;SDS011;46216;52.220;5.134;2023-06-22T11:26:22;9.35;;;6.03;;
60372;SDS011;46216;52.220;5.134;2023-06-22T11:28:49;6.05;;;5.30;;
60372;SDS011;46216;52.220;5.134;2023-06-22T11:31:14;8.30;;;6.35;;
60372;SDS011;46216;52.220;5.134;2023-06-22T11:33:39;6.97;;;6.18;;
60372;SDS011;46216;52.220;5.134;2023-06-22T11:36:05;8.90;;;6.68;;
60372;SDS011;46216;52.220;5.134;2023-06-22T11:38:30;8.55;;;6.03;;
60372;SDS011;46216;52.220;5.134;2023-06-22T11:40:57;8.15;;;6.47;;
60372;SDS011;46216;52.220;5.134;2023-06-22T11:43:23;8.40;;;5.80;;
60372;SDS011;46216;52.220;5.134;2023-06-22T11:45:49;8.02;;;5.85;;
60372;SDS011;46216;52.220;5.134;2023-06-22T11:48:15;9.30;;;6.20;;
60372;SDS011;46216;52.220;5.134;2023-06-22T11:50:40;7.18;;;6.00;;
60372;SDS011;46216;52.220;5.134;2023-06-22T11:53:07;8.65;;;6.82;;
60372;SDS011;46216;52.220;5.134;2023-06-22T11:55:32;8.32;;;7.22;;
60372;SDS011;46216;52.220;5.134;2023-06-22T11:57:58;9.25;;;8.38;;
60372;SDS011;46216;52.220;5.134;2023-06-22T12:00:25;9.27;;;8.40;;
60372;SDS011;46216;52.220;5.134;2023-06-22T12:02:51;10.02;;;8.40;;
60372;SDS011;46216;52.220;5.134;2023-06-22T12:05:20;9.82;;;8.70;;
60372;SDS011;46216;52.220;5.134;2023-06-22T12:07:46;10.63;;;9.15;;
60372;SDS011;46216;52.220;5.134;2023-06-22T12:10:12;10.38;;;9.38;;
60372;SDS011;46216;52.220;5.134;2023-06-22T12:12:37;11.93;;;9.80;;
60372;SDS011;46216;52.220;5.134;2023-06-22T12:15:03;11.32;;;9.63;;
60372;SDS011;46216;52.220;5.134;2023-06-22T12:17:29;12.57;;;9.98;;
60372;SDS011;46216;52.220;5.134;2023-06-22T12:19:55;12.77;;;10.77;;
60372;SDS011;46216;52.220;5.134;2023-06-22T12:22:20;11.77;;;10.65;;
60372;SDS011;46216;52.220;5.134;2023-06-22T12:24:46;12.13;;;10.93;;
60372;SDS011;46216;52.220;5.134;2023-06-22T12:27:11;14.20;;;11.38;;
60372;SDS011;46216;52.220;5.134;2023-06-22T12:29:37;15.43;;;12.43;;
60372;SDS011;46216;52.220;5.134;2023-06-22T12:32:02;15.60;;;13.07;;
60372;SDS011;46216;52.220;5.134;2023-06-22T12:34:28;13.48;;;12.07;;
60372;SDS011;46216;52.220;5.134;2023-06-22T12:36:53;15.95;;;12.98;;
60372;SDS011;46216;52.220;5.134;2023-06-22T12:39:19;16.77;;;14.55;;
60372;SDS011;46216;52.220;5.134;2023-06-22T12:41:45;15.23;;;13.75;;
60372;SDS011;46216;52.220;5.134;2023-06-22T12:44:10;15.15;;;13.63;;
60372;SDS011;46216;52.220;5.134;2023-06-22T12:46:36;14.40;;;12.93;;
60372;SDS011;46216;52.220;5.134;2023-06-22T12:49:03;15.10;;;13.32;;
60372;SDS011;46216;52.220;5.134;2023-06-22T12:51:29;14.48;;;12.95;;
60372;SDS011;46216;52.220;5.134;2023-06-22T12:53:55;14.35;;;12.85;;
60372;SDS011;46216;52.220;5.134;2023-06-22T12:56:21;13.43;;;12.15;;
60372;SDS011;46216;52.220;5.134;2023-06-22T12:58:47;12.80;;;11.43;;
60372;SDS011;46216;52.220;5.134;2023-06-22T13:01:12;15.70;;;12.07;;
60372;SDS011;46216;52.220;5.134;2023-06-22T13:03:37;11.85;;;10.75;;
60372;SDS011;46216;52.220;5.134;2023-06-22T13:06:03;10.90;;;9.77;;
60372;SDS011;46216;52.220;5.134;2023-06-22T13:08:28;9.52;;;8.57;;
60372;SDS011;46216;52.220;5.134;2023-06-22T13:10:54;10.10;;;9.05;;
60372;SDS011;46216;52.220;5.134;2023-06-22T13:13:23;8.85;;;8.00;;
60372;SDS011;46216;52.220;5.134;2023-06-22T13:15:55;8.90;;;7.97;;
60372;SDS011;46216;52.220;5.134;2023-06-22T13:18:20;8.82;;;8.02;;
60372;SDS011;46216;52.220;5.134;2023-06-22T13:20:46;8.82;;;7.65;;
60372;SDS011;46216;52.220;5.134;2023-06-22T13:23:11;8.82;;;7.70;;
60372;SDS011;46216;52.220;5.134;2023-06-22T13:25:37;8.75;;;7.55;;
60372;SDS011;46216;52.220;5.134;2023-06-22T13:28:02;8.45;;;7.30;;
60372;SDS011;46216;52.220;5.134;2023-06-22T13:30:28;8.02;;;7.22;;
60372;SDS011;46216;52.220;5.134;2023-06-22T13:32:53;8.85;;;8.05;;
60372;SDS011;46216;52.220;5.134;2023-06-22T13:35:19;10.75;;;8.25;;
60372;SDS011;46216;52.220;5.134;2023-06-22T13:37:44;9.25;;;8.38;;
60372;SDS011;46216;52.220;5.134;2023-06-22T13:40:10;9.18;;;8.00;;
60372;SDS011;46216;52.220;5.134;2023-06-22T13:42:35;10.35;;;8.70;;
60372;SDS011;46216;52.220;5.134;2023-06-22T13:45:01;9.48;;;8.30;;
60372;SDS011;46216;52.220;5.134;2023-06-22T13:47:27;9.90;;;8.88;;
60372;SDS011;46216;52.220;5.134;2023-06-22T13:49:52;9.60;;;8.65;;
60372;SDS011;46216;52.220;5.134;2023-06-22T13:52:17;10.65;;;8.70;;
60372;SDS011;46216;52.220;5.134;2023-06-22T13:54:43;9.75;;;8.80;;
60372;SDS011;46216;52.220;5.134;2023-06-22T13:57:08;11.82;;;9.48;;
60372;SDS011;46216;52.220;5.134;2023-06-22T13:59:34;10.25;;;9.05;;
60372;SDS011;46216;52.220;5.134;2023-06-22T14:01:59;10.25;;;9.15;;
60372;SDS011;46216;52.220;5.134;2023-06-22T14:04:25;14.55;;;10.20;;
60372;SDS011;46216;52.220;5.134;2023-06-22T14:06:51;11.77;;;9.15;;
60372;SDS011;46216;52.220;5.134;2023-06-22T14:09:16;10.30;;;9.13;;
60372;SDS011;46216;52.220;5.134;2023-06-22T14:11:42;11.45;;;10.35;;
60372;SDS011;46216;52.220;5.134;2023-06-22T14:14:08;12.65;;;10.18;;
60372;SDS011;46216;52.220;5.134;2023-06-22T14:16:33;11.63;;;10.43;;
60372;SDS011;46216;52.220;5.134;2023-06-22T14:18:59;13.85;;;10.85;;
60372;SDS011;46216;52.220;5.134;2023-06-22T14:21:25;14.35;;;11.77;;
60372;SDS011;46216;52.220;5.134;2023-06-22T14:23:51;14.95;;;12.57;;
60372;SDS011;46216;52.220;5.134;2023-06-22T14:26:16;13.35;;;12.15;;
60372;SDS011;46216;52.220;5.134;2023-06-22T14:28:47;13.73;;;12.10;;
60372;SDS011;46216;52.220;5.134;2023-06-22T14:31:15;16.23;;;12.88;;
60372;SDS011;46216;52.220;5.134;2023-06-22T14:33:45;12.52;;;10.75;;